sensor_id;sensor_type;location;lat;lon;timestamp;P1;durP1;ratioP1;P2;durP2;ratioP2
920;SDS011;447;51.332;6.778;2023-03-29T00:02:07;3.80;;;3.20;;
920;SDS011;447;51.332;6.778;2023-03-29T00:04:35;4.83;;;2.97;;
920;SDS011;447;51.332;6.778;2023-03-29T00:07:03;3.80;;;2.57;;
920;SDS011;447;51.332;6.778;2023-03-29T00:09:29;4.10;;;3.27;;
920;SDS011;447;51.332;6.778;2023-03-29T00:11:57;4.90;;;3.10;;
920;SDS011;447;51.332;6.778;2023-03-29T00:14:24;3.53;;;2.83;;
920;SDS011;447;51.332;6.778;2023-03-29T00:16:51;4.03;;;3.10;;
920;SDS011;447;51.332;6.778;2023-03-29T00:19:17;4.00;;;3.20;;
920;SDS011;447;51.332;6.778;2023-03-29T00:21:45;5.30;;;3.33;;
920;SDS011;447;51.332;6.778;2023-03-29T00:24:13;3.10;;;2.53;;
920;SDS011;447;51.332;6.778;2023-03-29T00:26:45;4.20;;;3.00;;
920;SDS011;447;51.332;6.778;2023-03-29T00:29:13;5.60;;;3.30;;
920;SDS011;447;51.332;6.778;2023-03-29T00:31:39;3.20;;;2.70;;
920;SDS011;447;51.332;6.778;2023-03-29T00:34:07;4.37;;;3.27;;
920;SDS011;447;51.332;6.778;2023-03-29T00:36:33;3.10;;;2.57;;
920;SDS011;447;51.332;6.778;2023-03-29T00:38:59;5.03;;;3.40;;
920;SDS011;447;51.332;6.778;2023-03-29T00:41:29;4.50;;;2.90;;
920;SDS011;447;51.332;6.778;2023-03-29T00:44:00;4.30;;;3.37;;
920;SDS011;447;51.332;6.778;2023-03-29T00:46:30;6.10;;;3.40;;
920;SDS011;447;51.332;6.778;2023-03-29T00:48:57;3.60;;;2.73;;
920;SDS011;447;51.332;6.778;2023-03-29T00:51:29;5.30;;;2.90;;
920;SDS011;447;51.332;6.778;2023-03-29T00:54:00;3.70;;;2.83;;
920;SDS011;447;51.332;6.778;2023-03-29T00:56:31;5.90;;;2.80;;
920;SDS011;447;51.332;6.778;2023-03-29T00:59:06;5.93;;;2.80;;
920;SDS011;447;51.332;6.778;2023-03-29T01:04:08;4.30;;;2.97;;
920;SDS011;447;51.332;6.778;2023-03-29T01:06:58;8.70;;;3.03;;
920;SDS011;447;51.332;6.778;2023-03-29T01:09:27;4.60;;;2.67;;
920;SDS011;447;51.332;6.778;2023-03-29T01:12:00;4.40;;;2.60;;
920;SDS011;447;51.332;6.778;2023-03-29T01:14:37;6.30;;;3.03;;
920;SDS011;447;51.332;6.778;2023-03-29T01:17:13;3.80;;;2.70;;
920;SDS011;447;51.332;6.778;2023-03-29T01:19:44;3.67;;;2.73;;
920;SDS011;447;51.332;6.778;2023-03-29T01:30:12;3.10;;;2.60;;
920;SDS011;447;51.332;6.778;2023-03-29T01:32:51;3.63;;;2.67;;
920;SDS011;447;51.332;6.778;2023-03-29T01:35:30;2.77;;;2.47;;
920;SDS011;447;51.332;6.778;2023-03-29T01:38:17;6.50;;;2.50;;
920;SDS011;447;51.332;6.778;2023-03-29T01:40:50;5.60;;;2.80;;
920;SDS011;447;51.332;6.778;2023-03-29T01:43:29;2.97;;;2.53;;
920;SDS011;447;51.332;6.778;2023-03-29T01:48:32;4.43;;;3.37;;
920;SDS011;447;51.332;6.778;2023-03-29T01:54:24;4.63;;;2.97;;
920;SDS011;447;51.332;6.778;2023-03-29T01:56:55;2.80;;;2.60;;
920;SDS011;447;51.332;6.778;2023-03-29T01:59:26;5.30;;;3.00;;
920;SDS011;447;51.332;6.778;2023-03-29T02:01:59;4.40;;;2.70;;
920;SDS011;447;51.332;6.778;2023-03-29T02:04:33;3.10;;;2.53;;
920;SDS011;447;51.332;6.778;2023-03-29T02:07:05;2.50;;;2.30;;
920;SDS011;447;51.332;6.778;2023-03-29T02:09:34;5.03;;;3.30;;
920;SDS011;447;51.332;6.778;2023-03-29T02:12:04;3.77;;;3.10;;
920;SDS011;447;51.332;6.778;2023-03-29T02:14:32;3.57;;;2.73;;
920;SDS011;447;51.332;6.778;2023-03-29T02:19:48;3.00;;;2.70;;
920;SDS011;447;51.332;6.778;2023-03-29T02:22:25;3.43;;;3.00;;
920;SDS011;447;51.332;6.778;2023-03-29T02:24:58;2.90;;;2.53;;
920;SDS011;447;51.332;6.778;2023-03-29T02:27:31;4.37;;;2.40;;
920;SDS011;447;51.332;6.778;2023-03-29T02:29:57;4.33;;;3.30;;
920;SDS011;447;51.332;6.778;2023-03-29T02:32:25;3.67;;;2.87;;
920;SDS011;447;51.332;6.778;2023-03-29T02:35:06;4.87;;;3.13;;
920;SDS011;447;51.332;6.778;2023-03-29T02:37:43;3.33;;;3.03;;
920;SDS011;447;51.332;6.778;2023-03-29T02:40:12;4.63;;;2.90;;
920;SDS011;447;51.332;6.778;2023-03-29T02:42:40;3.70;;;2.47;;
920;SDS011;447;51.332;6.778;2023-03-29T02:45:09;4.30;;;2.80;;
920;SDS011;447;51.332;6.778;2023-03-29T02:47:43;3.33;;;2.70;;
920;SDS011;447;51.332;6.778;2023-03-29T02:50:15;4.03;;;2.50;;
920;SDS011;447;51.332;6.778;2023-03-29T02:52:44;4.83;;;2.50;;
920;SDS011;447;51.332;6.778;2023-03-29T02:55:20;3.43;;;2.70;;
920;SDS011;447;51.332;6.778;2023-03-29T02:57:56;4.50;;;2.70;;
920;SDS011;447;51.332;6.778;2023-03-29T03:00:22;3.10;;;2.80;;
920;SDS011;447;51.332;6.778;2023-03-29T03:02:49;6.43;;;3.10;;
920;SDS011;447;51.332;6.778;2023-03-29T03:05:19;5.23;;;2.97;;
920;SDS011;447;51.332;6.778;2023-03-29T03:07:50;3.10;;;2.70;;
920;SDS011;447;51.332;6.778;2023-03-29T03:10:17;3.40;;;2.70;;
920;SDS011;447;51.332;6.778;2023-03-29T03:12:43;4.73;;;2.93;;
920;SDS011;447;51.332;6.778;2023-03-29T03:15:11;3.30;;;3.00;;
920;SDS011;447;51.332;6.778;2023-03-29T03:17:38;3.50;;;2.50;;
920;SDS011;447;51.332;6.778;2023-03-29T03:20:06;4.00;;;2.97;;
920;SDS011;447;51.332;6.778;2023-03-29T03:22:43;5.87;;;3.17;;
920;SDS011;447;51.332;6.778;2023-03-29T03:25:16;3.70;;;2.70;;
920;SDS011;447;51.332;6.778;2023-03-29T03:27:48;4.00;;;2.57;;
920;SDS011;447;51.332;6.778;2023-03-29T03:30:16;3.63;;;2.60;;
920;SDS011;447;51.332;6.778;2023-03-29T03:33:05;6.97;;;3.30;;
920;SDS011;447;51.332;6.778;2023-03-29T03:35:56;3.70;;;2.63;;
920;SDS011;447;51.332;6.778;2023-03-29T03:38:28;3.43;;;3.00;;
920;SDS011;447;51.332;6.778;2023-03-29T03:40:59;3.00;;;2.67;;
920;SDS011;447;51.332;6.778;2023-03-29T03:43:28;3.00;;;2.63;;
920;SDS011;447;51.332;6.778;2023-03-29T03:45:56;3.83;;;2.97;;
920;SDS011;447;51.332;6.778;2023-03-29T03:48:24;4.90;;;3.03;;
920;SDS011;447;51.332;6.778;2023-03-29T03:51:03;3.80;;;2.90;;
920;SDS011;447;51.332;6.778;2023-03-29T03:53:32;4.50;;;2.40;;
920;SDS011;447;51.332;6.778;2023-03-29T03:56:27;5.30;;;3.30;;
920;SDS011;447;51.332;6.778;2023-03-29T03:59:13;5.27;;;2.87;;
920;SDS011;447;51.332;6.778;2023-03-29T04:02:08;4.87;;;2.63;;
920;SDS011;447;51.332;6.778;2023-03-29T04:04:36;3.13;;;2.83;;
920;SDS011;447;51.332;6.778;2023-03-29T04:07:06;3.07;;;2.70;;
920;SDS011;447;51.332;6.778;2023-03-29T04:09:37;4.60;;;3.23;;
920;SDS011;447;51.332;6.778;2023-03-29T04:12:14;4.13;;;3.00;;
920;SDS011;447;51.332;6.778;2023-03-29T04:14:42;4.73;;;2.80;;
920;SDS011;447;51.332;6.778;2023-03-29T04:17:15;4.00;;;2.87;;
920;SDS011;447;51.332;6.778;2023-03-29T04:19:46;2.93;;;2.63;;
920;SDS011;447;51.332;6.778;2023-03-29T04:22:12;3.17;;;2.63;;
920;SDS011;447;51.332;6.778;2023-03-29T04:24:38;3.50;;;3.20;;
920;SDS011;447;51.332;6.778;2023-03-29T04:27:31;4.37;;;2.70;;
920;SDS011;447;51.332;6.778;2023-03-29T04:30:00;4.53;;;2.40;;
920;SDS011;447;51.332;6.778;2023-03-29T04:32:52;3.23;;;2.67;;
920;SDS011;447;51.332;6.778;2023-03-29T04:35:20;3.67;;;2.70;;
920;SDS011;447;51.332;6.778;2023-03-29T04:37:47;2.90;;;2.50;;
920;SDS011;447;51.332;6.778;2023-03-29T04:40:18;5.17;;;3.40;;
920;SDS011;447;51.332;6.778;2023-03-29T04:43:00;5.03;;;2.60;;
920;SDS011;447;51.332;6.778;2023-03-29T04:45:29;3.50;;;2.67;;
920;SDS011;447;51.332;6.778;2023-03-29T04:48:12;4.37;;;3.00;;
920;SDS011;447;51.332;6.778;2023-03-29T04:50:45;4.50;;;2.97;;
920;SDS011;447;51.332;6.778;2023-03-29T04:53:12;4.20;;;3.10;;
920;SDS011;447;51.332;6.778;2023-03-29T04:55:42;3.37;;;2.67;;
920;SDS011;447;51.332;6.778;2023-03-29T04:58:12;4.50;;;2.90;;
920;SDS011;447;51.332;6.778;2023-03-29T05:00:42;3.27;;;2.97;;
920;SDS011;447;51.332;6.778;2023-03-29T05:03:28;4.80;;;3.57;;
920;SDS011;447;51.332;6.778;2023-03-29T05:06:02;3.73;;;3.20;;
920;SDS011;447;51.332;6.778;2023-03-29T05:08:37;3.93;;;2.97;;
920;SDS011;447;51.332;6.778;2023-03-29T05:11:23;4.53;;;2.93;;
920;SDS011;447;51.332;6.778;2023-03-29T05:13:53;4.03;;;3.13;;
920;SDS011;447;51.332;6.778;2023-03-29T05:16:27;4.17;;;3.33;;
920;SDS011;447;51.332;6.778;2023-03-29T05:18:58;4.43;;;3.00;;
920;SDS011;447;51.332;6.778;2023-03-29T05:21:24;5.43;;;3.53;;
920;SDS011;447;51.332;6.778;2023-03-29T05:23:54;4.60;;;3.23;;
920;SDS011;447;51.332;6.778;2023-03-29T05:26:26;4.93;;;3.53;;
920;SDS011;447;51.332;6.778;2023-03-29T05:28:53;5.53;;;3.43;;
920;SDS011;447;51.332;6.778;2023-03-29T05:31:23;3.77;;;3.13;;
920;SDS011;447;51.332;6.778;2023-03-29T05:33:55;4.63;;;3.33;;
920;SDS011;447;51.332;6.778;2023-03-29T05:36:23;4.40;;;3.30;;
920;SDS011;447;51.332;6.778;2023-03-29T05:38:55;5.93;;;3.20;;
920;SDS011;447;51.332;6.778;2023-03-29T05:41:25;5.00;;;3.20;;
920;SDS011;447;51.332;6.778;2023-03-29T05:44:10;4.40;;;3.40;;
920;SDS011;447;51.332;6.778;2023-03-29T05:46:41;4.97;;;4.30;;
920;SDS011;447;51.332;6.778;2023-03-29T05:49:13;8.53;;;3.57;;
920;SDS011;447;51.332;6.778;2023-03-29T05:51:51;3.93;;;3.53;;
920;SDS011;447;51.332;6.778;2023-03-29T05:54:24;4.50;;;3.27;;
920;SDS011;447;51.332;6.778;2023-03-29T05:56:56;5.10;;;3.33;;
920;SDS011;447;51.332;6.778;2023-03-29T05:59:24;4.40;;;3.37;;
920;SDS011;447;51.332;6.778;2023-03-29T06:01:54;4.93;;;2.87;;
920;SDS011;447;51.332;6.778;2023-03-29T06:04:24;3.40;;;2.70;;
920;SDS011;447;51.332;6.778;2023-03-29T06:07:19;3.73;;;3.10;;
920;SDS011;447;51.332;6.778;2023-03-29T06:10:06;5.60;;;3.70;;
920;SDS011;447;51.332;6.778;2023-03-29T06:12:37;6.13;;;3.47;;
920;SDS011;447;51.332;6.778;2023-03-29T06:15:04;3.23;;;2.80;;
920;SDS011;447;51.332;6.778;2023-03-29T06:17:39;4.37;;;3.10;;
920;SDS011;447;51.332;6.778;2023-03-29T06:20:06;4.13;;;2.93;;
920;SDS011;447;51.332;6.778;2023-03-29T06:22:40;4.67;;;3.70;;
920;SDS011;447;51.332;6.778;2023-03-29T06:25:08;6.27;;;3.50;;
920;SDS011;447;51.332;6.778;2023-03-29T06:27:42;6.17;;;3.10;;
920;SDS011;447;51.332;6.778;2023-03-29T06:30:14;6.53;;;3.47;;
920;SDS011;447;51.332;6.778;2023-03-29T06:32:44;4.03;;;3.43;;
920;SDS011;447;51.332;6.778;2023-03-29T06:35:24;4.30;;;3.13;;
920;SDS011;447;51.332;6.778;2023-03-29T06:37:57;5.87;;;3.67;;
920;SDS011;447;51.332;6.778;2023-03-29T06:41:02;6.30;;;3.57;;
920;SDS011;447;51.332;6.778;2023-03-29T06:43:49;5.40;;;3.37;;
920;SDS011;447;51.332;6.778;2023-03-29T06:46:15;4.20;;;3.30;;
920;SDS011;447;51.332;6.778;2023-03-29T06:49:04;4.93;;;3.60;;
920;SDS011;447;51.332;6.778;2023-03-29T06:51:41;4.63;;;3.43;;
920;SDS011;447;51.332;6.778;2023-03-29T06:54:07;6.83;;;3.57;;
920;SDS011;447;51.332;6.778;2023-03-29T06:56:35;5.20;;;3.10;;
920;SDS011;447;51.332;6.778;2023-03-29T06:59:08;4.90;;;3.57;;
920;SDS011;447;51.332;6.778;2023-03-29T07:01:46;4.10;;;3.20;;
920;SDS011;447;51.332;6.778;2023-03-29T07:04:18;4.73;;;3.70;;
920;SDS011;447;51.332;6.778;2023-03-29T07:07:03;5.00;;;3.53;;
920;SDS011;447;51.332;6.778;2023-03-29T07:09:34;3.73;;;3.30;;
920;SDS011;447;51.332;6.778;2023-03-29T07:12:23;7.30;;;3.10;;
920;SDS011;447;51.332;6.778;2023-03-29T07:14:54;4.63;;;3.53;;
920;SDS011;447;51.332;6.778;2023-03-29T07:17:22;4.70;;;3.20;;
920;SDS011;447;51.332;6.778;2023-03-29T07:19:51;4.37;;;3.73;;
920;SDS011;447;51.332;6.778;2023-03-29T07:22:37;4.53;;;3.40;;
920;SDS011;447;51.332;6.778;2023-03-29T07:25:06;3.53;;;3.00;;
920;SDS011;447;51.332;6.778;2023-03-29T07:27:37;5.27;;;3.13;;
920;SDS011;447;51.332;6.778;2023-03-29T07:30:05;5.50;;;3.40;;
920;SDS011;447;51.332;6.778;2023-03-29T07:32:40;5.03;;;3.93;;
920;SDS011;447;51.332;6.778;2023-03-29T07:35:31;3.57;;;3.13;;
920;SDS011;447;51.332;6.778;2023-03-29T07:38:00;4.50;;;3.53;;
920;SDS011;447;51.332;6.778;2023-03-29T07:40:27;3.70;;;3.23;;
920;SDS011;447;51.332;6.778;2023-03-29T07:42:56;7.20;;;3.57;;
920;SDS011;447;51.332;6.778;2023-03-29T07:45:25;4.43;;;3.13;;
920;SDS011;447;51.332;6.778;2023-03-29T07:48:06;4.30;;;3.23;;
920;SDS011;447;51.332;6.778;2023-03-29T07:50:46;6.07;;;3.43;;
920;SDS011;447;51.332;6.778;2023-03-29T07:53:13;4.60;;;3.67;;
920;SDS011;447;51.332;6.778;2023-03-29T07:55:40;5.13;;;3.00;;
920;SDS011;447;51.332;6.778;2023-03-29T07:58:34;4.90;;;3.03;;
920;SDS011;447;51.332;6.778;2023-03-29T08:01:02;3.57;;;3.20;;
920;SDS011;447;51.332;6.778;2023-03-29T08:03:48;4.30;;;3.47;;
920;SDS011;447;51.332;6.778;2023-03-29T08:06:19;4.70;;;3.10;;
920;SDS011;447;51.332;6.778;2023-03-29T08:08:47;4.80;;;3.30;;
920;SDS011;447;51.332;6.778;2023-03-29T08:11:18;4.87;;;3.50;;
920;SDS011;447;51.332;6.778;2023-03-29T08:13:55;3.43;;;3.03;;
920;SDS011;447;51.332;6.778;2023-03-29T08:17:02;4.30;;;2.80;;
920;SDS011;447;51.332;6.778;2023-03-29T08:19:34;4.03;;;3.07;;
920;SDS011;447;51.332;6.778;2023-03-29T08:22:05;4.00;;;2.93;;
920;SDS011;447;51.332;6.778;2023-03-29T08:24:51;4.90;;;2.93;;
920;SDS011;447;51.332;6.778;2023-03-29T08:27:24;3.47;;;3.17;;
920;SDS011;447;51.332;6.778;2023-03-29T08:32:46;4.97;;;3.00;;
920;SDS011;447;51.332;6.778;2023-03-29T08:35:18;4.87;;;3.10;;
920;SDS011;447;51.332;6.778;2023-03-29T08:38:04;3.03;;;2.67;;
920;SDS011;447;51.332;6.778;2023-03-29T08:40:31;3.93;;;3.03;;
920;SDS011;447;51.332;6.778;2023-03-29T08:43:04;3.60;;;3.30;;
920;SDS011;447;51.332;6.778;2023-03-29T08:46:43;8.00;;;3.27;;
920;SDS011;447;51.332;6.778;2023-03-29T08:49:35;3.60;;;3.30;;
920;SDS011;447;51.332;6.778;2023-03-29T08:52:05;5.57;;;2.93;;
920;SDS011;447;51.332;6.778;2023-03-29T08:58:38;4.27;;;3.00;;
920;SDS011;447;51.332;6.778;2023-03-29T09:01:08;5.70;;;3.40;;
920;SDS011;447;51.332;6.778;2023-03-29T09:03:52;4.30;;;3.23;;
920;SDS011;447;51.332;6.778;2023-03-29T09:06:43;5.03;;;3.33;;
920;SDS011;447;51.332;6.778;2023-03-29T09:09:20;4.30;;;2.87;;
920;SDS011;447;51.332;6.778;2023-03-29T09:14:46;6.03;;;2.93;;
920;SDS011;447;51.332;6.778;2023-03-29T09:20:52;4.87;;;2.90;;
920;SDS011;447;51.332;6.778;2023-03-29T09:26:47;5.43;;;3.20;;
920;SDS011;447;51.332;6.778;2023-03-29T09:32:02;4.10;;;3.30;;
920;SDS011;447;51.332;6.778;2023-03-29T09:34:47;3.77;;;3.30;;
920;SDS011;447;51.332;6.778;2023-03-29T09:37:32;5.23;;;3.17;;
920;SDS011;447;51.332;6.778;2023-03-29T09:40:02;4.77;;;3.20;;
920;SDS011;447;51.332;6.778;2023-03-29T09:42:53;12.70;;;3.53;;
920;SDS011;447;51.332;6.778;2023-03-29T09:45:24;3.40;;;2.90;;
920;SDS011;447;51.332;6.778;2023-03-29T09:47:53;7.13;;;3.20;;
920;SDS011;447;51.332;6.778;2023-03-29T09:50:29;4.90;;;3.60;;
920;SDS011;447;51.332;6.778;2023-03-29T09:53:03;5.23;;;3.40;;
920;SDS011;447;51.332;6.778;2023-03-29T09:55:32;4.67;;;3.10;;
920;SDS011;447;51.332;6.778;2023-03-29T10:00:50;6.00;;;3.33;;
920;SDS011;447;51.332;6.778;2023-03-29T10:03:22;5.43;;;3.27;;
920;SDS011;447;51.332;6.778;2023-03-29T10:06:00;9.80;;;3.40;;
920;SDS011;447;51.332;6.778;2023-03-29T10:11:22;4.67;;;2.97;;
920;SDS011;447;51.332;6.778;2023-03-29T10:13:57;3.97;;;3.10;;
920;SDS011;447;51.332;6.778;2023-03-29T10:16:38;7.20;;;3.67;;
920;SDS011;447;51.332;6.778;2023-03-29T10:19:13;3.80;;;3.37;;
920;SDS011;447;51.332;6.778;2023-03-29T10:21:47;4.93;;;3.07;;
920;SDS011;447;51.332;6.778;2023-03-29T10:24:21;4.57;;;3.30;;
920;SDS011;447;51.332;6.778;2023-03-29T10:26:50;6.00;;;4.17;;
920;SDS011;447;51.332;6.778;2023-03-29T10:29:23;5.63;;;3.67;;
920;SDS011;447;51.332;6.778;2023-03-29T10:31:55;5.20;;;3.60;;
920;SDS011;447;51.332;6.778;2023-03-29T10:34:23;5.67;;;3.87;;
920;SDS011;447;51.332;6.778;2023-03-29T10:36:58;4.70;;;3.40;;
920;SDS011;447;51.332;6.778;2023-03-29T10:39:28;5.40;;;3.57;;
920;SDS011;447;51.332;6.778;2023-03-29T10:42:02;9.80;;;4.00;;
920;SDS011;447;51.332;6.778;2023-03-29T10:44:29;4.10;;;3.70;;
920;SDS011;447;51.332;6.778;2023-03-29T10:47:33;4.43;;;2.97;;
920;SDS011;447;51.332;6.778;2023-03-29T10:49:59;7.87;;;4.30;;
920;SDS011;447;51.332;6.778;2023-03-29T10:52:28;4.67;;;3.33;;
920;SDS011;447;51.332;6.778;2023-03-29T10:54:54;4.30;;;3.47;;
920;SDS011;447;51.332;6.778;2023-03-29T10:58:27;5.20;;;2.90;;
920;SDS011;447;51.332;6.778;2023-03-29T11:00:46;5.30;;;3.80;;
920;SDS011;447;51.332;6.778;2023-03-29T11:06:28;4.63;;;3.30;;
920;SDS011;447;51.332;6.778;2023-03-29T11:15:45;7.00;;;3.70;;
920;SDS011;447;51.332;6.778;2023-03-29T11:20:00;5.83;;;3.80;;
920;SDS011;447;51.332;6.778;2023-03-29T11:42:23;6.30;;;4.20;;
920;SDS011;447;51.332;6.778;2023-03-29T11:44:58;7.77;;;3.73;;
920;SDS011;447;51.332;6.778;2023-03-29T11:47:33;6.20;;;3.47;;
920;SDS011;447;51.332;6.778;2023-03-29T11:50:13;3.83;;;3.40;;
920;SDS011;447;51.332;6.778;2023-03-29T11:52:46;3.53;;;3.20;;
920;SDS011;447;51.332;6.778;2023-03-29T11:55:29;5.60;;;3.60;;
920;SDS011;447;51.332;6.778;2023-03-29T11:58:02;9.70;;;3.50;;
920;SDS011;447;51.332;6.778;2023-03-29T12:05:45;3.70;;;3.10;;
920;SDS011;447;51.332;6.778;2023-03-29T12:08:19;3.40;;;2.73;;
920;SDS011;447;51.332;6.778;2023-03-29T12:13:41;5.87;;;3.07;;
920;SDS011;447;51.332;6.778;2023-03-29T12:16:13;3.90;;;2.37;;
920;SDS011;447;51.332;6.778;2023-03-29T12:18:47;8.93;;;3.73;;
920;SDS011;447;51.332;6.778;2023-03-29T12:21:22;5.30;;;3.20;;
920;SDS011;447;51.332;6.778;2023-03-29T12:23:53;4.37;;;3.40;;
920;SDS011;447;51.332;6.778;2023-03-29T12:40:24;4.63;;;2.57;;
920;SDS011;447;51.332;6.778;2023-03-29T12:43:26;8.00;;;3.03;;
920;SDS011;447;51.332;6.778;2023-03-29T12:46:23;4.20;;;3.00;;
920;SDS011;447;51.332;6.778;2023-03-29T12:48:54;5.93;;;3.10;;
920;SDS011;447;51.332;6.778;2023-03-29T12:51:30;6.03;;;2.97;;
920;SDS011;447;51.332;6.778;2023-03-29T12:59:38;3.67;;;2.87;;
920;SDS011;447;51.332;6.778;2023-03-29T13:09:51;4.67;;;3.10;;
920;SDS011;447;51.332;6.778;2023-03-29T13:12:22;4.50;;;2.67;;
920;SDS011;447;51.332;6.778;2023-03-29T13:25:54;5.03;;;2.57;;
920;SDS011;447;51.332;6.778;2023-03-29T13:28:33;7.37;;;3.70;;
920;SDS011;447;51.332;6.778;2023-03-29T13:34:28;4.40;;;3.00;;
920;SDS011;447;51.332;6.778;2023-03-29T13:39:35;6.10;;;3.30;;
920;SDS011;447;51.332;6.778;2023-03-29T13:42:53;4.97;;;2.70;;
920;SDS011;447;51.332;6.778;2023-03-29T13:45:12;3.50;;;2.80;;
920;SDS011;447;51.332;6.778;2023-03-29T13:47:40;3.67;;;2.63;;
920;SDS011;447;51.332;6.778;2023-03-29T13:50:10;5.70;;;2.80;;
920;SDS011;447;51.332;6.778;2023-03-29T13:53:02;5.37;;;3.07;;
920;SDS011;447;51.332;6.778;2023-03-29T13:55:40;2.90;;;2.20;;
920;SDS011;447;51.332;6.778;2023-03-29T14:00:59;5.13;;;3.30;;
920;SDS011;447;51.332;6.778;2023-03-29T14:03:43;2.67;;;2.30;;
920;SDS011;447;51.332;6.778;2023-03-29T14:06:20;3.43;;;2.40;;
920;SDS011;447;51.332;6.778;2023-03-29T14:08:50;2.80;;;2.40;;
920;SDS011;447;51.332;6.778;2023-03-29T14:13:51;3.33;;;2.57;;
920;SDS011;447;51.332;6.778;2023-03-29T14:16:19;3.77;;;2.47;;
920;SDS011;447;51.332;6.778;2023-03-29T14:18:57;4.40;;;2.70;;
920;SDS011;447;51.332;6.778;2023-03-29T14:21:35;2.63;;;2.10;;
920;SDS011;447;51.332;6.778;2023-03-29T14:24:02;4.80;;;2.20;;
920;SDS011;447;51.332;6.778;2023-03-29T14:26:29;2.10;;;1.90;;
920;SDS011;447;51.332;6.778;2023-03-29T14:28:57;2.67;;;2.00;;
920;SDS011;447;51.332;6.778;2023-03-29T14:31:28;3.00;;;2.10;;
920;SDS011;447;51.332;6.778;2023-03-29T14:33:57;2.73;;;2.10;;
920;SDS011;447;51.332;6.778;2023-03-29T14:36:27;2.53;;;1.97;;
920;SDS011;447;51.332;6.778;2023-03-29T14:38:55;2.20;;;1.97;;
920;SDS011;447;51.332;6.778;2023-03-29T14:41:44;3.33;;;2.17;;
920;SDS011;447;51.332;6.778;2023-03-29T14:44:20;3.47;;;2.13;;
920;SDS011;447;51.332;6.778;2023-03-29T14:46:49;2.90;;;2.37;;
920;SDS011;447;51.332;6.778;2023-03-29T14:49:16;2.20;;;1.77;;
920;SDS011;447;51.332;6.778;2023-03-29T14:51:44;3.63;;;2.00;;
920;SDS011;447;51.332;6.778;2023-03-29T14:57:03;3.40;;;2.20;;
920;SDS011;447;51.332;6.778;2023-03-29T15:02:02;3.27;;;2.00;;
920;SDS011;447;51.332;6.778;2023-03-29T15:04:34;2.10;;;1.90;;
920;SDS011;447;51.332;6.778;2023-03-29T15:07:04;2.90;;;1.80;;
920;SDS011;447;51.332;6.778;2023-03-29T15:09:32;3.60;;;2.50;;
920;SDS011;447;51.332;6.778;2023-03-29T15:12:04;2.40;;;2.00;;
920;SDS011;447;51.332;6.778;2023-03-29T15:14:32;4.93;;;2.33;;
920;SDS011;447;51.332;6.778;2023-03-29T15:17:02;3.90;;;2.00;;
920;SDS011;447;51.332;6.778;2023-03-29T15:19:32;3.73;;;2.53;;
920;SDS011;447;51.332;6.778;2023-03-29T15:22:01;2.23;;;2.03;;
920;SDS011;447;51.332;6.778;2023-03-29T15:24:40;2.50;;;2.23;;
920;SDS011;447;51.332;6.778;2023-03-29T15:27:11;3.73;;;2.30;;
920;SDS011;447;51.332;6.778;2023-03-29T15:29:41;2.80;;;2.20;;
920;SDS011;447;51.332;6.778;2023-03-29T15:32:21;1.90;;;1.70;;
920;SDS011;447;51.332;6.778;2023-03-29T15:34:58;3.00;;;2.53;;
920;SDS011;447;51.332;6.778;2023-03-29T15:37:29;2.80;;;2.10;;
920;SDS011;447;51.332;6.778;2023-03-29T15:39:58;4.20;;;2.40;;
920;SDS011;447;51.332;6.778;2023-03-29T15:42:23;2.50;;;2.30;;
920;SDS011;447;51.332;6.778;2023-03-29T15:44:56;3.90;;;2.37;;
920;SDS011;447;51.332;6.778;2023-03-29T15:47:21;2.40;;;2.20;;
920;SDS011;447;51.332;6.778;2023-03-29T15:49:50;4.03;;;2.30;;
920;SDS011;447;51.332;6.778;2023-03-29T15:52:16;2.63;;;2.20;;
920;SDS011;447;51.332;6.778;2023-03-29T15:54:42;2.27;;;2.07;;
920;SDS011;447;51.332;6.778;2023-03-29T15:57:11;3.17;;;2.23;;
920;SDS011;447;51.332;6.778;2023-03-29T15:59:41;2.70;;;2.07;;
920;SDS011;447;51.332;6.778;2023-03-29T16:02:13;2.63;;;2.00;;
920;SDS011;447;51.332;6.778;2023-03-29T16:04:43;4.23;;;2.20;;
920;SDS011;447;51.332;6.778;2023-03-29T16:07:14;3.67;;;1.97;;
920;SDS011;447;51.332;6.778;2023-03-29T16:09:47;2.77;;;2.40;;
920;SDS011;447;51.332;6.778;2023-03-29T16:12:15;3.13;;;2.30;;
920;SDS011;447;51.332;6.778;2023-03-29T16:14:59;3.03;;;2.10;;
920;SDS011;447;51.332;6.778;2023-03-29T16:17:24;2.70;;;2.30;;
920;SDS011;447;51.332;6.778;2023-03-29T16:19:50;3.43;;;2.50;;
920;SDS011;447;51.332;6.778;2023-03-29T16:22:21;2.00;;;1.80;;
920;SDS011;447;51.332;6.778;2023-03-29T16:24:47;3.17;;;1.90;;
920;SDS011;447;51.332;6.778;2023-03-29T16:27:13;3.10;;;2.30;;
920;SDS011;447;51.332;6.778;2023-03-29T16:29:41;5.67;;;2.10;;
920;SDS011;447;51.332;6.778;2023-03-29T16:32:08;2.50;;;2.13;;
920;SDS011;447;51.332;6.778;2023-03-29T16:34:36;2.63;;;2.10;;
920;SDS011;447;51.332;6.778;2023-03-29T16:37:07;2.97;;;1.90;;
920;SDS011;447;51.332;6.778;2023-03-29T16:39:36;4.70;;;2.60;;
920;SDS011;447;51.332;6.778;2023-03-29T16:42:02;2.63;;;2.20;;
920;SDS011;447;51.332;6.778;2023-03-29T16:44:30;2.20;;;2.00;;
920;SDS011;447;51.332;6.778;2023-03-29T16:46:56;5.27;;;2.40;;
920;SDS011;447;51.332;6.778;2023-03-29T16:49:22;3.80;;;2.63;;
920;SDS011;447;51.332;6.778;2023-03-29T16:51:54;4.43;;;2.57;;
920;SDS011;447;51.332;6.778;2023-03-29T16:54:23;4.37;;;2.57;;
920;SDS011;447;51.332;6.778;2023-03-29T16:56:53;3.80;;;2.00;;
920;SDS011;447;51.332;6.778;2023-03-29T16:59:19;3.20;;;1.90;;
920;SDS011;447;51.332;6.778;2023-03-29T17:01:44;2.60;;;1.93;;
920;SDS011;447;51.332;6.778;2023-03-29T17:04:13;2.73;;;2.20;;
920;SDS011;447;51.332;6.778;2023-03-29T17:06:41;2.50;;;2.10;;
920;SDS011;447;51.332;6.778;2023-03-29T17:09:09;5.67;;;2.43;;
920;SDS011;447;51.332;6.778;2023-03-29T17:11:37;2.87;;;2.30;;
920;SDS011;447;51.332;6.778;2023-03-29T17:14:06;3.00;;;2.10;;
920;SDS011;447;51.332;6.778;2023-03-29T17:16:32;4.73;;;2.60;;
920;SDS011;447;51.332;6.778;2023-03-29T17:19:00;2.20;;;1.87;;
920;SDS011;447;51.332;6.778;2023-03-29T17:21:26;3.30;;;2.30;;
920;SDS011;447;51.332;6.778;2023-03-29T17:23:58;3.27;;;2.50;;
920;SDS011;447;51.332;6.778;2023-03-29T17:26:24;3.00;;;2.27;;
920;SDS011;447;51.332;6.778;2023-03-29T17:28:52;4.47;;;2.30;;
920;SDS011;447;51.332;6.778;2023-03-29T17:31:18;2.70;;;2.00;;
920;SDS011;447;51.332;6.778;2023-03-29T17:33:44;2.70;;;2.30;;
920;SDS011;447;51.332;6.778;2023-03-29T17:36:14;3.40;;;2.03;;
920;SDS011;447;51.332;6.778;2023-03-29T17:38:40;3.43;;;2.10;;
920;SDS011;447;51.332;6.778;2023-03-29T17:41:15;4.37;;;2.43;;
920;SDS011;447;51.332;6.778;2023-03-29T17:43:44;3.20;;;2.50;;
920;SDS011;447;51.332;6.778;2023-03-29T17:46:12;2.20;;;2.00;;
920;SDS011;447;51.332;6.778;2023-03-29T17:48:41;3.27;;;2.07;;
920;SDS011;447;51.332;6.778;2023-03-29T17:51:07;2.87;;;2.30;;
920;SDS011;447;51.332;6.778;2023-03-29T17:53:38;3.13;;;2.03;;
920;SDS011;447;51.332;6.778;2023-03-29T17:56:04;2.67;;;2.47;;
920;SDS011;447;51.332;6.778;2023-03-29T17:58:31;4.20;;;2.70;;
920;SDS011;447;51.332;6.778;2023-03-29T18:01:05;3.40;;;2.37;;
920;SDS011;447;51.332;6.778;2023-03-29T18:03:37;3.27;;;2.60;;
920;SDS011;447;51.332;6.778;2023-03-29T18:06:06;3.90;;;2.50;;
920;SDS011;447;51.332;6.778;2023-03-29T18:08:35;3.90;;;2.33;;
920;SDS011;447;51.332;6.778;2023-03-29T18:11:08;3.50;;;2.40;;
920;SDS011;447;51.332;6.778;2023-03-29T18:13:42;2.87;;;2.10;;
920;SDS011;447;51.332;6.778;2023-03-29T18:16:12;3.87;;;2.70;;
920;SDS011;447;51.332;6.778;2023-03-29T18:18:38;4.60;;;2.70;;
920;SDS011;447;51.332;6.778;2023-03-29T18:21:04;2.63;;;2.43;;
920;SDS011;447;51.332;6.778;2023-03-29T18:23:35;2.93;;;2.33;;
920;SDS011;447;51.332;6.778;2023-03-29T18:26:04;2.67;;;2.10;;
920;SDS011;447;51.332;6.778;2023-03-29T18:28:32;3.47;;;2.47;;
920;SDS011;447;51.332;6.778;2023-03-29T18:31:01;4.10;;;2.60;;
920;SDS011;447;51.332;6.778;2023-03-29T18:33:30;2.13;;;1.93;;
920;SDS011;447;51.332;6.778;2023-03-29T18:36:03;2.80;;;2.40;;
920;SDS011;447;51.332;6.778;2023-03-29T18:38:31;3.77;;;2.50;;
920;SDS011;447;51.332;6.778;2023-03-29T18:41:02;3.57;;;2.40;;